ADDS METAR Data INFO
IDs: Format: Raw Decoded Include TAF

Data at: 1333 UTC 25 Sep 2017

KPPA 251315Z AUTO 16007KT 4SM BR BKN007 OVC011 20/19 A2993 RMK AO2 LTG DSNT NE THRU S T01950186
KPPA 251255Z AUTO 16009KT 3SM BR BKN005 19/18 A2993 RMK AO2 LTG DSNT NE AND SE T01910182
KPPA 251235Z AUTO 15009KT 10SM SCT038 18/17 A2993 RMK AO2 LTG DSNT NE T01820173
KPPA 251215Z AUTO 16008KT 10SM SCT040 SCT050 SCT070 18/17 A2993 RMK AO2 LTG DSNT ALQS T01800167
KPPA 251155Z AUTO 18009KT 10SM SCT015 SCT039 BKN060 19/17 A2992 RMK AO2 LTG DSNT ALQS T01860166 10208 20176
KPPA 251135Z AUTO 15009G45KT 1SM +TSRA BKN010 OVC030 18/15 A2992 RMK AO2 LTG DSNT ALQS T01760148
KPPA 251115Z AUTO 19014G19KT 5SM VCTSRA SCT036 SCT044 BKN049 20/19 A2992 RMK AO2 LTG DSNT ALQS T01960187
KPPA 251055Z AUTO 17010KT 5SM VCTS BR SCT039 SCT047 20/19 A2992 RMK AO2 LTG DSNT ALQS T01950186
KPPA 251035Z AUTO 18010KT 5SM -RA SCT038 SCT044 SCT050 20/19 A2992 RMK AO2 LTG DSNT SE THRU SW T01950185
KPPA 251015Z AUTO 18008KT 5SM BR CLR 20/19 A2992 RMK AO2 LTG DSNT SE AND SW T01950185
KPPA 250955Z AUTO 18012KT 7SM SCT006 SCT009 SCT039 20/19 A2992 RMK AO2 LTG DSNT N AND SW T01970186
KPPA 250935Z AUTO 17013KT 7SM SCT007 SCT039 SCT049 20/19 A2991 RMK AO2 LTG DSNT N AND SW T01970186
KPPA 250915Z AUTO 17012KT 7SM SCT037 SCT046 BKN100 20/19 A2991 RMK AO2 LTG DSNT N NE AND SW T02000187
KPPA 250855Z AUTO 18014KT 5SM BR SCT037 BKN044 BKN060 20/19 A2993 RMK AO2 LTG DSNT N AND W T02000187
KPPA 250835Z AUTO 17010G16KT 7SM SCT011 SCT038 BKN120 20/19 A2992 RMK AO2 LTG DSNT N T01980186
KPPA 250815Z AUTO 16009KT 7SM BKN120 20/19 A2993 RMK AO2 LTG DSNT N AND NW T02000187
KPPA 250755Z AUTO 16013KT 4SM -VCTSRA SCT013 BKN035 OVC110 20/19 A2993 RMK AO2 LTG DSNT N T02010190
KPPA 250735Z AUTO 17011KT 7SM -VCTSRA SCT007 BKN016 OVC050 21/19 A2994 RMK AO2 LTG DSNT NW THRU NE T02050191
KPPA 250715Z AUTO 16014G18KT 7SM VCTS BKN007 OVC012 21/19 A2993 RMK AO2 LTG DSNT NW T02070192
KPPA 250655Z AUTO 16015G19KT 7SM BKN007 BKN018 OVC060 21/19 A2993 RMK AO2 LTG DSNT W T02070192
KPPA 250635Z AUTO 16014KT 7SM SCT007 SCT021 BKN041 21/19 A2993 RMK AO2 LTG DSNT SW AND W T02060191
KPPA 250615Z AUTO 17014G19KT 7SM SCT030 SCT037 BKN100 21/19 A2994 RMK AO2 LTG DSNT SW T02060192
KPPA 250555Z AUTO 17014KT 7SM BKN110 21/19 A2994 RMK AO2 T02050192 10235 20204 402450183
KPPA 250535Z AUTO 17015KT 7SM SCT007 SCT011 BKN110 21/19 A2994 RMK AO2 T02060192
KPPA 250515Z AUTO 17015G20KT 7SM SCT009 BKN016 OVC100 21/19 A2994 RMK AO2 T02070192
KPPA 250455Z AUTO 18017G21KT 7SM SCT009 BKN016 OVC110 21/19 A2994 RMK AO2 T02080192
KPPA 250435Z AUTO 17016G22KT 7SM BKN009 OVC015 21/19 A2994 RMK AO2 T02080192
KPPA 250415Z AUTO 17014KT 7SM BKN009 21/19 A2993 RMK AO2 T02050190
KPPA 250355Z AUTO 17012KT 7SM BKN009 21/19 A2993 RMK AO2 T02050190
KPPA 250335Z AUTO 17015G19KT 10SM OVC011 21/19 A2993 RMK AO2 T02080188
KPPA 250315Z AUTO 17014KT 10SM OVC009 21/19 A2993 RMK AO2 T02100189
KPPA 250255Z AUTO 17015KT 10SM BKN009 BKN014 21/19 A2993 RMK AO2 T02100190
KPPA 250235Z AUTO 16013KT 10SM SCT013 BKN020 21/19 A2993 RMK AO2 T02080187
KPPA 250215Z AUTO 16016KT 10SM SCT013 SCT018 21/19 A2992 RMK AO2 T02100187
KPPA 250155Z AUTO 17015G20KT 10SM SCT013 21/19 A2992 RMK AO2 T02080185
KPPA 250135Z AUTO 17017KT 10SM CLR 21/19 A2991 RMK AO2 T02100185
KPPA 250115Z AUTO 16016G19KT 10SM SCT016 21/19 A2991 RMK AO2 T02140187
KPPA 250055Z AUTO 15014KT 10SM BKN016 22/19 A2991 RMK AO2 T02170190
KPPA 250035Z AUTO 15011KT 10SM OVC016 22/19 A2991 RMK AO2 T02200190
KPPA 250015Z AUTO 15011G20KT 10SM BKN016 BKN022 OVC027 23/19 A2991 RMK AO2 T02260191
KPPA 242355Z AUTO 17016G23KT 10SM SCT019 BKN026 OVC038 24/19 A2991 RMK AO2 T02350187 10245 20224
KPPA 242335Z AUTO 16014G19KT 10SM SCT019 SCT028 OVC040 24/19 A2990 RMK AO2 T02350190
KPPA 242315Z AUTO 16014KT 10SM SCT029 OVC039 23/19 A2990 RMK AO2 T02270190
KPPA 242255Z AUTO 16016G19KT 10SM SCT015 SCT021 OVC042 24/19 A2990 RMK AO2 T02360191
KPPA 242235Z AUTO 16016G21KT 10SM SCT015 SCT023 OVC036 23/19 A2990 RMK AO2 T02340190
KPPA 242215Z AUTO 16014KT 10SM SCT015 SCT020 OVC036 24/19 A2989 RMK AO2 T02350192
KPPA 242155Z AUTO 16012KT 10SM SCT015 SCT028 OVC036 24/19 A2989 RMK AO2 T02400190
KPPA 242135Z AUTO 16014KT 10SM SCT013 SCT018 OVC036 24/19 A2990 RMK AO2 T02380191
KPPA 242115Z AUTO 17015G19KT 10SM SCT015 OVC034 24/19 A2990 RMK AO2 T02390190
KPPA 242055Z AUTO 18016G20KT 10SM SCT017 SCT025 OVC034 24/19 A2991 RMK AO2 T02370190
KPPA 242035Z AUTO 16016KT 10SM SCT017 BKN023 OVC030 24/19 A2991 RMK AO2 T02400193
KPPA 242015Z AUTO 17015KT 10SM BKN017 BKN023 OVC031 24/19 A2992 RMK AO2 T02410189
KPPA 241955Z AUTO 18018G22KT 10SM SCT015 BKN023 OVC036 24/19 A2992 RMK AO2 T02390188
KPPA 241935Z AUTO 16013KT 10SM SCT015 BKN022 OVC031 24/19 A2992 RMK AO2 T02410187
KPPA 241915Z AUTO 17011KT 10SM BKN013 OVC023 23/19 A2993 RMK AO2 T02330189
KPPA 241855Z AUTO 18013KT 10SM OVC013 23/19 A2994 RMK AO2 T02270188
KPPA 241835Z AUTO 18014G20KT 10SM BKN013 OVC020 23/19 A2994 RMK AO2 T02250185
KPPA 241815Z AUTO 19016G22KT 10SM SCT015 OVC023 24/18 A2994 RMK AO2 T02350182
KPPA 241755Z AUTO 18017G22KT 10SM SCT015 BKN023 OVC049 24/18 A2994 RMK AO2 T02420182 10242 20183
KPPA 241735Z AUTO 18018KT 10SM SCT015 OVC021 24/18 A2994 RMK AO2 T02370184
KPPA 241715Z AUTO 19016G21KT 10SM SCT015 OVC019 23/18 A2994 RMK AO2 T02270182
KPPA 241655Z AUTO 16016G23KT 10SM SCT012 BKN017 OVC050 23/18 A2994 RMK AO2 T02250182
KPPA 241635Z AUTO 17017G22KT 10SM SCT012 BKN016 OVC047 22/18 A2995 RMK AO2 T02160182
KPPA 241615Z AUTO 17015KT 10SM BKN012 BKN023 OVC047 21/18 A2995 RMK AO2 T02140182
KPPA 241555Z AUTO 17017G23KT 10SM BKN008 BKN014 OVC021 20/18 A2995 RMK AO2 T02040181
KPPA 241535Z AUTO 17016G20KT 10SM OVC008 20/18 A2995 RMK AO2 T02000180
KPPA 241515Z AUTO 16015G20KT 10SM BKN008 OVC013 20/18 A2994 RMK AO2 T01970180
KPPA 241455Z AUTO 16017G22KT 10SM BKN010 BKN023 20/18 A2994 RMK AO2 T02000180
KPPA 241435Z AUTO 17017G22KT 10SM OVC008 20/18 A2994 RMK AO2 T01990184
KPPA 241415Z AUTO 16017G22KT 10SM OVC008 20/19 A2993 RMK AO2 T01960185
KPPA 241355Z AUTO 16014KT 10SM BKN008 BKN014 OVC110 20/18 A2993 RMK AO2 T01950182
KPPA 241335Z AUTO 15014KT 10SM BKN008 BKN012 OVC100 19/18 A2993 RMK AO2 T01900179
KPPA 241315Z AUTO 14013KT 10SM SCT010 SCT017 BKN110 19/17 A2993 RMK AO2 T01850174
KPPA 241255Z AUTO 14012KT 10SM SCT110 19/17 A2990 RMK AO2 T01850171
KPPA 241235Z AUTO 15013G19KT 10SM SCT009 SCT043 BKN120 19/17 A2989 RMK AO2 T01850170
KPPA 241215Z AUTO 15014KT 7SM RA SCT008 BKN045 OVC065 19/18 A2990 RMK AO2 T01880175
KPPA 241155Z AUTO 13008KT 5SM RA SCT016 BKN021 OVC049 19/17 A2990 RMK AO2 T01860173 10228 20185
KPPA 241135Z AUTO 00000KT 4SM +RA SCT014 OVC018 19/17 A2991 RMK AO2 T01850173
KPPA 241115Z AUTO 20004KT 2 1/2SM +RA SCT015 OVC020 19/18 A2991 RMK AO2 T01890175
KPPA 241055Z AUTO 19005KT 7SM +RA OVC023 20/17 A2991 RMK AO2 T02040166
KPPA 241035Z AUTO 00000KT 10SM OVC025 19/16 A2991 RMK AO2 T01920158
KPPA 241015Z AUTO 27004KT 10SM BKN025 OVC048 21/16 A2991 RMK AO2 T02050155
KPPA 240955Z AUTO 17012KT 10SM BKN060 BKN070 OVC100 22/16 A2990 RMK AO2 T02160155
KPPA 240935Z AUTO 16014KT 10SM SCT060 BKN070 OVC100 21/16 A2990 RMK AO2 T02120156
KPPA 240915Z AUTO 16014G19KT 10SM BKN050 BKN085 OVC110 22/15 A2990 RMK AO2 T02170151
KPPA 240855Z AUTO 16014G20KT 10SM BKN050 BKN075 OVC120 22/15 A2990 RMK AO2 T02180151
KPPA 240835Z AUTO 16015KT 10SM BKN055 BKN075 OVC110 22/15 A2990 RMK AO2 T02200150
KPPA 240815Z AUTO 16016G22KT 10SM SCT075 BKN100 22/15 A2991 RMK AO2 T02210147
KPPA 240755Z AUTO 16017G21KT 10SM BKN055 BKN075 OVC090 22/15 A2991 RMK AO2 T02200147
KPPA 240735Z AUTO 16014G21KT 10SM SCT055 BKN100 22/15 A2992 RMK AO2 T02240146
KPPA 240715Z AUTO 15013G17KT 10SM SCT110 23/15 A2992 RMK AO2 T02250146
KPPA 240655Z AUTO 16013G18KT 10SM SCT060 SCT065 BKN080 23/15 A2992 RMK AO2 T02250146
KPPA 240635Z AUTO 16014KT 10SM OVC055 23/15 A2992 RMK AO2 T02260147
KPPA 240615Z AUTO 17015G19KT 10SM BKN055 OVC080 23/15 A2992 RMK AO2 T02270147
KPPA 240555Z AUTO 16013G21KT 10SM SCT055 23/15 A2992 RMK AO2 T02280147 10255 20228 402910195
KPPA 240535Z AUTO 16017G24KT 10SM CLR 23/15 A2992 RMK AO2 LTG DSNT N T02300148
KPPA 240515Z AUTO 16019G27KT 10SM CLR 23/15 A2990 RMK AO2 LTG DSNT N T02300150
KPPA 240455Z AUTO 16021G29KT 10SM CLR 23/15 A2989 RMK AO2 T02320150
KPPA 240435Z AUTO 15021G26KT 10SM CLR 23/15 A2988 RMK AO2 T02300151
KPPA 240415Z AUTO 15018G25KT 10SM CLR 23/15 A2987 RMK AO2 T02310152
KPPA 240355Z AUTO 14021G28KT 10SM CLR 23/15 A2986 RMK AO2 T02320153
KPPA 240335Z AUTO 14022G26KT 10SM CLR 24/15 A2987 RMK AO2 T02350152
KPPA 240315Z AUTO 14020G24KT 10SM SCT085 24/15 A2987 RMK AO2 T02350146
KPPA 240255Z AUTO 14015KT 10SM CLR 24/14 A2989 RMK AO2 T02350142
KPPA 240235Z AUTO 14014KT 10SM SCT070 24/14 A2989 RMK AO2 T02410142
KPPA 240215Z AUTO 14017G21KT 10SM CLR 24/14 A2988 RMK AO2 T02420143
KPPA 240155Z AUTO 14013KT 10SM SCT060 24/15 A2988 RMK AO2 LTG DSNT N T02410146
KPPA 240135Z AUTO 14014KT 10SM SCT060 SCT070 25/15 A2989 RMK AO2 LTG DSNT N AND NW T02450150